sensor_id;sensor_type;location;lat;lon;timestamp;P1;durP1;ratioP1;P2;durP2;ratioP2
63089;SDS011;49174;43.198;27.824;2023-02-10T04:26:14;25.55;;;13.30;;
63089;SDS011;49174;43.198;27.824;2023-02-10T04:45:48;30.90;;;16.52;;
63089;SDS011;49174;43.198;27.824;2023-02-10T05:01:43;34.78;;;16.98;;
63089;SDS011;49174;43.198;27.824;2023-02-10T05:04:09;26.17;;;12.75;;
63089;SDS011;49174;43.198;27.824;2023-02-10T05:06:34;30.52;;;14.43;;
63089;SDS011;49174;43.198;27.824;2023-02-10T05:09:00;27.25;;;13.93;;
63089;SDS011;49174;43.198;27.824;2023-02-10T05:11:26;32.63;;;16.17;;
63089;SDS011;49174;43.198;27.824;2023-02-10T05:13:51;28.05;;;15.07;;
63089;SDS011;49174;43.198;27.824;2023-02-10T05:16:17;32.55;;;15.90;;
63089;SDS011;49174;43.198;27.824;2023-02-10T05:18:43;32.05;;;15.25;;
63089;SDS011;49174;43.198;27.824;2023-02-10T05:21:10;32.53;;;15.30;;
63089;SDS011;49174;43.198;27.824;2023-02-10T05:23:38;26.88;;;14.18;;
63089;SDS011;49174;43.198;27.824;2023-02-10T05:26:05;25.92;;;13.20;;
63089;SDS011;49174;43.198;27.824;2023-02-10T05:28:30;28.85;;;12.80;;
63089;SDS011;49174;43.198;27.824;2023-02-10T05:30:56;33.83;;;14.38;;
63089;SDS011;49174;43.198;27.824;2023-02-10T05:33:22;31.95;;;14.55;;
63089;SDS011;49174;43.198;27.824;2023-02-10T05:35:47;29.27;;;15.10;;
63089;SDS011;49174;43.198;27.824;2023-02-10T05:38:13;29.52;;;15.85;;
63089;SDS011;49174;43.198;27.824;2023-02-10T05:40:38;35.08;;;18.00;;
63089;SDS011;49174;43.198;27.824;2023-02-10T05:43:04;36.15;;;16.58;;
63089;SDS011;49174;43.198;27.824;2023-02-10T05:45:30;36.28;;;18.15;;
63089;SDS011;49174;43.198;27.824;2023-02-10T05:47:55;39.85;;;19.17;;
63089;SDS011;49174;43.198;27.824;2023-02-10T05:50:21;41.47;;;19.85;;
63089;SDS011;49174;43.198;27.824;2023-02-10T05:52:46;43.05;;;22.42;;
63089;SDS011;49174;43.198;27.824;2023-02-10T05:55:12;46.13;;;24.65;;
63089;SDS011;49174;43.198;27.824;2023-02-10T05:57:38;40.15;;;22.35;;
63089;SDS011;49174;43.198;27.824;2023-02-10T06:00:07;42.78;;;22.55;;
63089;SDS011;49174;43.198;27.824;2023-02-10T06:02:35;44.17;;;21.95;;
63089;SDS011;49174;43.198;27.824;2023-02-10T06:05:00;44.50;;;21.88;;
63089;SDS011;49174;43.198;27.824;2023-02-10T06:07:26;44.30;;;21.45;;
63089;SDS011;49174;43.198;27.824;2023-02-10T06:09:52;46.22;;;23.25;;
63089;SDS011;49174;43.198;27.824;2023-02-10T06:12:17;66.32;;;28.60;;
63089;SDS011;49174;43.198;27.824;2023-02-10T06:14:44;63.85;;;31.15;;
63089;SDS011;49174;43.198;27.824;2023-02-10T06:17:09;47.47;;;25.60;;
63089;SDS011;49174;43.198;27.824;2023-02-10T06:19:38;46.42;;;23.73;;
63089;SDS011;49174;43.198;27.824;2023-02-10T06:22:05;42.47;;;20.42;;
63089;SDS011;49174;43.198;27.824;2023-02-10T06:24:31;35.03;;;17.83;;
63089;SDS011;49174;43.198;27.824;2023-02-10T06:26:57;28.13;;;14.35;;
63089;SDS011;49174;43.198;27.824;2023-02-10T06:29:23;26.50;;;13.48;;
63089;SDS011;49174;43.198;27.824;2023-02-10T06:31:49;24.98;;;13.57;;
63089;SDS011;49174;43.198;27.824;2023-02-10T06:34:15;22.50;;;12.60;;
63089;SDS011;49174;43.198;27.824;2023-02-10T06:36:41;25.02;;;12.57;;
63089;SDS011;49174;43.198;27.824;2023-02-10T06:39:06;24.40;;;12.05;;
63089;SDS011;49174;43.198;27.824;2023-02-10T06:41:32;25.38;;;12.90;;
63089;SDS011;49174;43.198;27.824;2023-02-10T06:43:58;67.38;;;29.00;;
63089;SDS011;49174;43.198;27.824;2023-02-10T06:46:24;41.08;;;23.38;;
63089;SDS011;49174;43.198;27.824;2023-02-10T06:48:49;29.45;;;16.10;;
63089;SDS011;49174;43.198;27.824;2023-02-10T06:51:15;25.48;;;12.60;;
63089;SDS011;49174;43.198;27.824;2023-02-10T06:53:40;24.58;;;12.85;;
63089;SDS011;49174;43.198;27.824;2023-02-10T06:56:07;24.15;;;13.20;;
63089;SDS011;49174;43.198;27.824;2023-02-10T06:58:34;26.35;;;13.07;;
63089;SDS011;49174;43.198;27.824;2023-02-10T07:01:00;24.05;;;12.73;;
63089;SDS011;49174;43.198;27.824;2023-02-10T07:03:26;25.38;;;11.57;;
63089;SDS011;49174;43.198;27.824;2023-02-10T07:05:52;24.42;;;12.13;;
63089;SDS011;49174;43.198;27.824;2023-02-10T07:08:18;27.38;;;13.13;;
63089;SDS011;49174;43.198;27.824;2023-02-10T07:10:43;32.58;;;15.63;;
63089;SDS011;49174;43.198;27.824;2023-02-10T07:13:09;25.77;;;12.82;;
63089;SDS011;49174;43.198;27.824;2023-02-10T07:15:34;23.55;;;12.15;;
63089;SDS011;49174;43.198;27.824;2023-02-10T07:18:00;24.80;;;12.45;;
63089;SDS011;49174;43.198;27.824;2023-02-10T07:20:25;21.83;;;10.80;;
63089;SDS011;49174;43.198;27.824;2023-02-10T07:22:53;16.75;;;9.80;;
63089;SDS011;49174;43.198;27.824;2023-02-10T07:25:19;24.88;;;13.48;;
63089;SDS011;49174;43.198;27.824;2023-02-10T07:27:45;28.58;;;16.15;;
63089;SDS011;49174;43.198;27.824;2023-02-10T07:30:11;30.05;;;16.70;;
63089;SDS011;49174;43.198;27.824;2023-02-10T07:32:37;27.58;;;13.93;;
63089;SDS011;49174;43.198;27.824;2023-02-10T07:35:04;21.13;;;12.38;;
63089;SDS011;49174;43.198;27.824;2023-02-10T07:37:29;29.10;;;14.30;;
63089;SDS011;49174;43.198;27.824;2023-02-10T07:39:57;18.98;;;10.90;;
63089;SDS011;49174;43.198;27.824;2023-02-10T07:42:22;18.85;;;10.98;;
63089;SDS011;49174;43.198;27.824;2023-02-10T07:44:48;26.77;;;11.70;;
63089;SDS011;49174;43.198;27.824;2023-02-10T07:47:14;24.05;;;14.45;;
63089;SDS011;49174;43.198;27.824;2023-02-10T07:49:41;23.33;;;14.25;;
63089;SDS011;49174;43.198;27.824;2023-02-10T07:52:06;28.13;;;15.15;;
63089;SDS011;49174;43.198;27.824;2023-02-10T07:54:32;36.08;;;19.63;;
63089;SDS011;49174;43.198;27.824;2023-02-10T07:56:58;27.63;;;16.15;;
63089;SDS011;49174;43.198;27.824;2023-02-10T07:59:23;29.20;;;19.83;;
63089;SDS011;49174;43.198;27.824;2023-02-10T08:01:49;28.10;;;17.17;;
63089;SDS011;49174;43.198;27.824;2023-02-10T08:04:15;33.47;;;20.05;;
63089;SDS011;49174;43.198;27.824;2023-02-10T08:06:40;32.42;;;17.70;;
63089;SDS011;49174;43.198;27.824;2023-02-10T08:09:06;22.38;;;12.70;;
63089;SDS011;49174;43.198;27.824;2023-02-10T08:11:32;22.45;;;13.80;;
63089;SDS011;49174;43.198;27.824;2023-02-10T08:13:58;28.70;;;16.42;;
63089;SDS011;49174;43.198;27.824;2023-02-10T08:16:26;19.15;;;11.43;;
63089;SDS011;49174;43.198;27.824;2023-02-10T08:18:51;22.90;;;11.82;;
63089;SDS011;49174;43.198;27.824;2023-02-10T08:21:17;43.10;;;21.17;;
63089;SDS011;49174;43.198;27.824;2023-02-10T08:23:42;20.90;;;10.63;;
63089;SDS011;49174;43.198;27.824;2023-02-10T08:26:10;16.65;;;10.73;;
63089;SDS011;49174;43.198;27.824;2023-02-10T08:28:37;16.92;;;9.80;;
63089;SDS011;49174;43.198;27.824;2023-02-10T08:31:05;14.73;;;7.78;;
63089;SDS011;49174;43.198;27.824;2023-02-10T08:33:33;16.55;;;10.25;;
63089;SDS011;49174;43.198;27.824;2023-02-10T08:36:04;12.30;;;8.35;;
63089;SDS011;49174;43.198;27.824;2023-02-10T08:38:31;15.88;;;8.25;;
63089;SDS011;49174;43.198;27.824;2023-02-10T08:40:57;14.00;;;7.63;;
63089;SDS011;49174;43.198;27.824;2023-02-10T08:43:23;18.48;;;9.95;;
63089;SDS011;49174;43.198;27.824;2023-02-10T08:45:49;19.77;;;11.50;;
63089;SDS011;49174;43.198;27.824;2023-02-10T08:48:15;11.60;;;6.93;;
63089;SDS011;49174;43.198;27.824;2023-02-10T08:50:41;15.98;;;6.93;;
63089;SDS011;49174;43.198;27.824;2023-02-10T08:53:06;12.40;;;6.95;;
63089;SDS011;49174;43.198;27.824;2023-02-10T08:55:32;6.50;;;3.33;;
63089;SDS011;49174;43.198;27.824;2023-02-10T08:57:58;10.18;;;5.10;;
63089;SDS011;49174;43.198;27.824;2023-02-10T09:00:23;5.53;;;2.50;;
63089;SDS011;49174;43.198;27.824;2023-02-10T09:02:49;6.82;;;2.30;;
63089;SDS011;49174;43.198;27.824;2023-02-10T09:05:15;4.07;;;1.95;;
63089;SDS011;49174;43.198;27.824;2023-02-10T09:07:41;4.05;;;1.75;;
63089;SDS011;49174;43.198;27.824;2023-02-10T09:10:09;4.15;;;1.73;;
63089;SDS011;49174;43.198;27.824;2023-02-10T09:12:35;4.15;;;1.85;;
63089;SDS011;49174;43.198;27.824;2023-02-10T09:15:02;4.07;;;1.70;;
63089;SDS011;49174;43.198;27.824;2023-02-10T09:17:28;3.03;;;1.50;;
63089;SDS011;49174;43.198;27.824;2023-02-10T09:19:53;5.20;;;2.55;;
63089;SDS011;49174;43.198;27.824;2023-02-10T09:22:19;8.85;;;3.35;;
63089;SDS011;49174;43.198;27.824;2023-02-10T09:24:44;6.30;;;2.65;;
63089;SDS011;49174;43.198;27.824;2023-02-10T09:27:12;5.50;;;3.00;;
63089;SDS011;49174;43.198;27.824;2023-02-10T09:29:38;4.68;;;2.33;;
63089;SDS011;49174;43.198;27.824;2023-02-10T09:32:03;14.95;;;6.35;;
63089;SDS011;49174;43.198;27.824;2023-02-10T09:34:29;6.88;;;3.40;;
63089;SDS011;49174;43.198;27.824;2023-02-10T09:36:56;4.30;;;2.42;;
63089;SDS011;49174;43.198;27.824;2023-02-10T09:39:23;5.93;;;2.58;;
63089;SDS011;49174;43.198;27.824;2023-02-10T09:42:39;4.63;;;2.55;;
63089;SDS011;49174;43.198;27.824;2023-02-10T09:45:02;4.22;;;1.95;;
63089;SDS011;49174;43.198;27.824;2023-02-10T09:55:39;4.07;;;1.77;;
63089;SDS011;49174;43.198;27.824;2023-02-10T09:58:13;3.00;;;1.70;;
63089;SDS011;49174;43.198;27.824;2023-02-10T10:00:43;3.25;;;1.67;;
63089;SDS011;49174;43.198;27.824;2023-02-10T10:03:16;2.83;;;1.70;;
63089;SDS011;49174;43.198;27.824;2023-02-10T10:11:23;7.43;;;3.40;;
63089;SDS011;49174;43.198;27.824;2023-02-10T10:13:57;4.70;;;1.92;;
63089;SDS011;49174;43.198;27.824;2023-02-10T10:33:14;3.55;;;1.73;;
63089;SDS011;49174;43.198;27.824;2023-02-10T10:35:56;3.28;;;1.75;;
63089;SDS011;49174;43.198;27.824;2023-02-10T10:38:33;6.15;;;1.48;;
63089;SDS011;49174;43.198;27.824;2023-02-10T10:41:04;1.63;;;1.10;;
63089;SDS011;49174;43.198;27.824;2023-02-10T10:43:44;1.98;;;1.20;;
63089;SDS011;49174;43.198;27.824;2023-02-10T10:46:58;2.70;;;1.70;;
63089;SDS011;49174;43.198;27.824;2023-02-10T10:49:08;3.85;;;1.65;;
63089;SDS011;49174;43.198;27.824;2023-02-10T10:51:34;2.78;;;1.63;;
63089;SDS011;49174;43.198;27.824;2023-02-10T10:54:00;5.65;;;2.40;;
63089;SDS011;49174;43.198;27.824;2023-02-10T10:56:43;3.78;;;2.42;;
63089;SDS011;49174;43.198;27.824;2023-02-10T10:59:20;3.80;;;2.15;;
63089;SDS011;49174;43.198;27.824;2023-02-10T11:01:52;3.65;;;1.95;;
63089;SDS011;49174;43.198;27.824;2023-02-10T11:04:18;3.28;;;1.63;;
63089;SDS011;49174;43.198;27.824;2023-02-10T11:06:46;4.80;;;2.63;;
63089;SDS011;49174;43.198;27.824;2023-02-10T11:09:17;7.35;;;2.97;;
63089;SDS011;49174;43.198;27.824;2023-02-10T11:11:47;7.30;;;3.15;;
63089;SDS011;49174;43.198;27.824;2023-02-10T11:14:14;9.82;;;4.10;;
63089;SDS011;49174;43.198;27.824;2023-02-10T11:16:48;5.85;;;2.58;;
63089;SDS011;49174;43.198;27.824;2023-02-10T11:19:24;3.47;;;2.05;;
63089;SDS011;49174;43.198;27.824;2023-02-10T11:21:52;5.68;;;2.30;;
63089;SDS011;49174;43.198;27.824;2023-02-10T11:24:29;4.88;;;2.80;;
63089;SDS011;49174;43.198;27.824;2023-02-10T11:29:48;4.85;;;2.13;;
63089;SDS011;49174;43.198;27.824;2023-02-10T11:37:42;4.68;;;2.67;;
63089;SDS011;49174;43.198;27.824;2023-02-10T11:40:19;4.07;;;2.67;;
63089;SDS011;49174;43.198;27.824;2023-02-10T11:42:48;3.20;;;1.80;;
63089;SDS011;49174;43.198;27.824;2023-02-10T11:45:18;4.32;;;1.85;;
63089;SDS011;49174;43.198;27.824;2023-02-10T11:47:46;3.00;;;1.65;;
63089;SDS011;49174;43.198;27.824;2023-02-10T11:50:26;3.72;;;1.90;;
63089;SDS011;49174;43.198;27.824;2023-02-10T11:52:56;5.57;;;1.70;;
63089;SDS011;49174;43.198;27.824;2023-02-10T11:55:25;3.85;;;2.17;;
63089;SDS011;49174;43.198;27.824;2023-02-10T11:58:07;5.28;;;2.20;;
63089;SDS011;49174;43.198;27.824;2023-02-10T12:01:23;3.00;;;2.03;;
63089;SDS011;49174;43.198;27.824;2023-02-10T12:09:19;8.23;;;3.95;;
63089;SDS011;49174;43.198;27.824;2023-02-10T12:12:15;7.53;;;3.53;;
63089;SDS011;49174;43.198;27.824;2023-02-10T13:05:50;8.18;;;3.75;;
63089;SDS011;49174;43.198;27.824;2023-02-10T13:08:26;6.40;;;3.85;;
63089;SDS011;49174;43.198;27.824;2023-02-10T13:14:25;5.38;;;2.92;;
63089;SDS011;49174;43.198;27.824;2023-02-10T13:42:23;6.45;;;3.03;;
63089;SDS011;49174;43.198;27.824;2023-02-10T14:14:56;12.27;;;6.70;;
63089;SDS011;49174;43.198;27.824;2023-02-10T14:17:25;9.02;;;5.03;;
63089;SDS011;49174;43.198;27.824;2023-02-10T14:19:55;7.22;;;3.30;;
63089;SDS011;49174;43.198;27.824;2023-02-10T14:27:57;5.55;;;2.72;;
63089;SDS011;49174;43.198;27.824;2023-02-10T14:30:30;9.82;;;4.78;;
63089;SDS011;49174;43.198;27.824;2023-02-10T14:33:19;27.60;;;12.30;;
63089;SDS011;49174;43.198;27.824;2023-02-10T14:35:57;19.50;;;8.63;;
63089;SDS011;49174;43.198;27.824;2023-02-10T14:38:26;5.60;;;3.10;;
63089;SDS011;49174;43.198;27.824;2023-02-10T14:40:58;8.52;;;4.40;;
63089;SDS011;49174;43.198;27.824;2023-02-10T14:43:26;17.90;;;8.68;;
63089;SDS011;49174;43.198;27.824;2023-02-10T14:45:54;13.50;;;6.82;;
63089;SDS011;49174;43.198;27.824;2023-02-10T14:48:24;11.63;;;6.10;;
63089;SDS011;49174;43.198;27.824;2023-02-10T15:07:59;19.42;;;11.23;;
63089;SDS011;49174;43.198;27.824;2023-02-10T15:10:36;32.00;;;14.73;;
63089;SDS011;49174;43.198;27.824;2023-02-10T15:15:52;13.13;;;7.45;;
63089;SDS011;49174;43.198;27.824;2023-02-10T15:18:19;12.60;;;7.35;;
63089;SDS011;49174;43.198;27.824;2023-02-10T15:23:45;15.95;;;7.43;;
63089;SDS011;49174;43.198;27.824;2023-02-10T15:29:09;14.00;;;7.70;;
63089;SDS011;49174;43.198;27.824;2023-02-10T15:34:28;18.42;;;9.93;;
63089;SDS011;49174;43.198;27.824;2023-02-10T15:36:58;18.77;;;11.00;;
63089;SDS011;49174;43.198;27.824;2023-02-10T15:42:22;24.10;;;13.00;;
63089;SDS011;49174;43.198;27.824;2023-02-10T15:45:03;22.73;;;12.75;;
63089;SDS011;49174;43.198;27.824;2023-02-10T15:48:00;21.45;;;12.90;;
63089;SDS011;49174;43.198;27.824;2023-02-10T15:53:19;31.83;;;19.40;;
63089;SDS011;49174;43.198;27.824;2023-02-10T15:55:49;30.40;;;17.65;;
63089;SDS011;49174;43.198;27.824;2023-02-10T15:58:15;27.08;;;14.90;;
63089;SDS011;49174;43.198;27.824;2023-02-10T16:00:41;28.40;;;13.88;;
63089;SDS011;49174;43.198;27.824;2023-02-10T16:03:10;25.77;;;15.40;;
63089;SDS011;49174;43.198;27.824;2023-02-10T16:05:37;29.00;;;17.02;;
63089;SDS011;49174;43.198;27.824;2023-02-10T16:08:05;31.88;;;18.77;;
63089;SDS011;49174;43.198;27.824;2023-02-10T16:10:34;46.05;;;28.48;;
63089;SDS011;49174;43.198;27.824;2023-02-10T16:13:00;34.50;;;24.33;;
63089;SDS011;49174;43.198;27.824;2023-02-10T16:15:26;34.65;;;19.98;;
63089;SDS011;49174;43.198;27.824;2023-02-10T16:17:53;26.70;;;17.33;;
63089;SDS011;49174;43.198;27.824;2023-02-10T16:20:22;27.45;;;18.27;;
63089;SDS011;49174;43.198;27.824;2023-02-10T16:22:50;27.73;;;16.50;;
63089;SDS011;49174;43.198;27.824;2023-02-10T16:25:17;26.88;;;16.77;;
63089;SDS011;49174;43.198;27.824;2023-02-10T16:27:44;31.23;;;17.08;;
63089;SDS011;49174;43.198;27.824;2023-02-10T16:30:20;33.15;;;18.90;;
63089;SDS011;49174;43.198;27.824;2023-02-10T16:32:51;81.88;;;37.13;;
63089;SDS011;49174;43.198;27.824;2023-02-10T16:35:18;56.47;;;30.50;;
63089;SDS011;49174;43.198;27.824;2023-02-10T16:37:44;42.17;;;22.77;;
63089;SDS011;49174;43.198;27.824;2023-02-10T16:40:21;44.58;;;24.30;;
63089;SDS011;49174;43.198;27.824;2023-02-10T16:42:51;35.00;;;20.67;;
63089;SDS011;49174;43.198;27.824;2023-02-10T16:45:19;33.38;;;20.10;;
63089;SDS011;49174;43.198;27.824;2023-02-10T16:47:46;31.95;;;19.35;;
63089;SDS011;49174;43.198;27.824;2023-02-10T16:50:19;37.03;;;19.85;;
63089;SDS011;49174;43.198;27.824;2023-02-10T16:52:53;37.15;;;19.15;;
63089;SDS011;49174;43.198;27.824;2023-02-10T16:55:19;175.48;;;65.28;;
63089;SDS011;49174;43.198;27.824;2023-02-10T16:57:45;96.70;;;44.38;;
63089;SDS011;49174;43.198;27.824;2023-02-10T17:00:12;75.53;;;35.95;;
63089;SDS011;49174;43.198;27.824;2023-02-10T17:02:39;51.05;;;27.20;;
63089;SDS011;49174;43.198;27.824;2023-02-10T17:05:07;60.42;;;30.58;;
63089;SDS011;49174;43.198;27.824;2023-02-10T17:07:34;66.80;;;32.28;;
63089;SDS011;49174;43.198;27.824;2023-02-10T17:10:01;55.15;;;28.63;;
63089;SDS011;49174;43.198;27.824;2023-02-10T17:12:28;47.40;;;25.00;;
63089;SDS011;49174;43.198;27.824;2023-02-10T17:14:53;42.92;;;23.13;;
63089;SDS011;49174;43.198;27.824;2023-02-10T17:17:19;44.88;;;23.73;;
63089;SDS011;49174;43.198;27.824;2023-02-10T17:19:44;37.85;;;20.48;;
63089;SDS011;49174;43.198;27.824;2023-02-10T17:22:10;36.63;;;21.30;;
63089;SDS011;49174;43.198;27.824;2023-02-10T17:24:35;36.88;;;20.25;;
63089;SDS011;49174;43.198;27.824;2023-02-10T17:27:01;40.60;;;22.20;;
63089;SDS011;49174;43.198;27.824;2023-02-10T17:29:26;34.80;;;22.23;;
63089;SDS011;49174;43.198;27.824;2023-02-10T17:31:52;30.08;;;18.15;;
63089;SDS011;49174;43.198;27.824;2023-02-10T17:34:18;34.05;;;19.98;;
63089;SDS011;49174;43.198;27.824;2023-02-10T17:36:44;37.95;;;23.63;;
63089;SDS011;49174;43.198;27.824;2023-02-10T17:39:13;33.05;;;18.50;;
63089;SDS011;49174;43.198;27.824;2023-02-10T17:41:49;31.67;;;18.77;;
63089;SDS011;49174;43.198;27.824;2023-02-10T17:44:16;37.28;;;21.48;;
63089;SDS011;49174;43.198;27.824;2023-02-10T17:46:42;61.17;;;31.85;;
63089;SDS011;49174;43.198;27.824;2023-02-10T17:49:12;55.53;;;31.20;;
63089;SDS011;49174;43.198;27.824;2023-02-10T17:51:38;44.58;;;23.98;;
63089;SDS011;49174;43.198;27.824;2023-02-10T17:54:04;31.77;;;19.60;;
63089;SDS011;49174;43.198;27.824;2023-02-10T17:56:30;26.20;;;15.70;;
63089;SDS011;49174;43.198;27.824;2023-02-10T17:58:56;21.13;;;12.45;;
63089;SDS011;49174;43.198;27.824;2023-02-10T18:06:45;28.30;;;15.88;;
63089;SDS011;49174;43.198;27.824;2023-02-10T18:09:11;27.30;;;17.27;;
63089;SDS011;49174;43.198;27.824;2023-02-10T18:11:38;28.70;;;18.42;;
63089;SDS011;49174;43.198;27.824;2023-02-10T18:14:04;33.42;;;19.00;;
63089;SDS011;49174;43.198;27.824;2023-02-10T18:40:48;29.90;;;16.63;;
63089;SDS011;49174;43.198;27.824;2023-02-10T18:43:20;30.55;;;18.25;;
63089;SDS011;49174;43.198;27.824;2023-02-10T18:45:47;31.30;;;18.35;;
63089;SDS011;49174;43.198;27.824;2023-02-10T18:48:14;32.45;;;18.83;;
63089;SDS011;49174;43.198;27.824;2023-02-10T18:56:14;27.67;;;14.18;;
63089;SDS011;49174;43.198;27.824;2023-02-10T18:58:42;25.10;;;14.43;;
63089;SDS011;49174;43.198;27.824;2023-02-10T19:01:17;24.70;;;13.88;;
63089;SDS011;49174;43.198;27.824;2023-02-10T19:03:45;69.30;;;31.88;;
63089;SDS011;49174;43.198;27.824;2023-02-10T19:06:12;49.50;;;23.83;;
63089;SDS011;49174;43.198;27.824;2023-02-10T19:08:38;58.60;;;25.83;;
63089;SDS011;49174;43.198;27.824;2023-02-10T19:19:31;41.88;;;21.98;;
63089;SDS011;49174;43.198;27.824;2023-02-10T19:21:57;41.35;;;24.63;;
63089;SDS011;49174;43.198;27.824;2023-02-10T19:24:23;63.97;;;32.05;;
63089;SDS011;49174;43.198;27.824;2023-02-10T19:40:18;37.85;;;20.85;;
63089;SDS011;49174;43.198;27.824;2023-02-10T21:08:58;25.50;;;11.50;;
63089;SDS011;49174;43.198;27.824;2023-02-10T21:14:24;26.77;;;14.05;;
63089;SDS011;49174;43.198;27.824;2023-02-10T21:16:51;28.50;;;14.00;;
63089;SDS011;49174;43.198;27.824;2023-02-10T21:32:46;31.60;;;16.92;;
63089;SDS011;49174;43.198;27.824;2023-02-10T21:43:18;27.70;;;15.63;;
63089;SDS011;49174;43.198;27.824;2023-02-10T21:45:47;26.45;;;14.23;;
63089;SDS011;49174;43.198;27.824;2023-02-10T21:56:20;40.75;;;19.02;;
63089;SDS011;49174;43.198;27.824;2023-02-10T21:58:46;39.35;;;20.95;;
63089;SDS011;49174;43.198;27.824;2023-02-10T22:22:48;40.53;;;21.65;;
63089;SDS011;49174;43.198;27.824;2023-02-10T22:25:14;37.75;;;19.83;;
63089;SDS011;49174;43.198;27.824;2023-02-10T22:27:39;38.97;;;19.73;;
63089;SDS011;49174;43.198;27.824;2023-02-10T22:30:05;39.67;;;19.80;;
63089;SDS011;49174;43.198;27.824;2023-02-10T22:32:31;49.75;;;21.45;;
63089;SDS011;49174;43.198;27.824;2023-02-10T22:34:56;41.90;;;20.10;;
63089;SDS011;49174;43.198;27.824;2023-02-10T22:37:22;64.10;;;26.23;;
63089;SDS011;49174;43.198;27.824;2023-02-10T22:39:47;62.95;;;23.65;;
63089;SDS011;49174;43.198;27.824;2023-02-10T22:42:13;65.25;;;26.13;;
63089;SDS011;49174;43.198;27.824;2023-02-10T22:44:39;66.82;;;25.83;;
63089;SDS011;49174;43.198;27.824;2023-02-10T22:47:06;68.18;;;28.55;;
